Time;durP1;ratioP1;P1;durP2;ratioP2;P2;SDS_P1;SDS_P2;PMS_P1;PMS_P2;Temp;Humidity;BMP_temperature;BMP_pressure;BME280_temperature;BME280_humidity;BME280_pressure;Samples;Min_cycle;Max_cycle;Signal;HPM_P1;HPM_P2
2021/04/11 00:02:10;;;;;;;3.35;0.63;;;;;;;13.71;64.41;99380.81;4953667;28;20028;-64
2021/04/11 00:04:35;;;;;;;1.63;0.60;;;;;;;13.74;64.33;99380.16;4960404;28;20070;-64
2021/04/11 00:07:00;;;;;;;0.80;0.40;;;;;;;13.76;64.31;99369.66;4959659;28;20023;-66
2021/04/11 00:09:26;;;;;;;1.90;0.60;;;;;;;13.74;64.37;99363.72;4953696;28;20027;-64
2021/04/11 00:11:51;;;;;;;2.15;0.52;;;;;;;13.73;64.36;99359.34;4952403;29;20018;-65
2021/04/11 00:14:17;;;;;;;1.88;0.70;;;;;;;13.71;64.39;99358.91;4958636;28;20035;-66
2021/04/11 00:16:42;;;;;;;2.47;0.68;;;;;;;13.56;64.44;99325.38;4955166;28;20384;-64
2021/04/11 00:19:08;;;;;;;1.58;0.70;;;;;;;13.60;64.44;99341.97;4962387;28;20023;-64
2021/04/11 00:21:34;;;;;;;1.75;0.73;;;;;;;13.67;64.45;99353.25;4960717;28;20027;-65
2021/04/11 00:23:59;;;;;;;1.60;0.90;;;;;;;13.62;64.71;99346.03;4955866;29;20506;-64
2021/04/11 00:26:25;;;;;;;2.50;0.75;;;;;;;13.63;64.66;99349.56;4957838;28;20198;-64
2021/04/11 00:28:50;;;;;;;2.35;0.90;;;;;;;13.62;64.76;99345.19;4952612;28;20044;-64
2021/04/11 00:31:15;;;;;;;3.92;0.70;;;;;;;13.62;64.73;99346.03;4960295;28;20083;-65
2021/04/11 00:33:45;;;;;;;2.45;0.60;;;;;;;13.59;64.70;99348.59;4954031;28;20035;-65
2021/04/11 00:36:13;;;;;;;2.22;1.02;;;;;;;13.56;64.76;99343.75;4952050;28;20031;-65
2021/04/11 00:38:39;;;;;;;2.08;0.70;;;;;;;13.53;64.84;99361.66;4952258;28;20034;-64
2021/04/11 00:41:11;;;;;;;1.58;0.60;;;;;;;13.53;65.12;99361.66;4956242;28;20377;-64
2021/04/11 00:43:38;;;;;;;2.03;0.73;;;;;;;13.50;65.09;99360.38;4954912;28;20034;-64
2021/04/11 00:46:22;;;;;;;1.92;0.60;;;;;;;13.53;65.25;99364.41;4950897;28;20027;-65
2021/04/11 00:48:48;;;;;;;6.03;0.60;;;;;;;13.53;65.03;99365.19;4957767;28;20031;-67
2021/04/11 00:51:16;;;;;;;1.67;0.70;;;;;;;13.42;64.91;99331.06;4952048;28;20399;-64
2021/04/11 00:53:43;;;;;;;4.57;0.75;;;;;;;13.54;64.95;99347.63;4953790;28;20023;-64
2021/04/11 00:56:10;;;;;;;3.20;0.80;;;;;;;13.44;65.13;99326.03;4960080;28;20034;-64
2021/04/11 00:58:36;;;;;;;1.63;0.63;;;;;;;13.56;65.03;99344.56;4952213;28;20051;-64
2021/04/11 01:01:03;;;;;;;4.20;0.77;;;;;;;13.57;65.09;99348.91;4943856;28;20031;-66
2021/04/11 01:03:32;;;;;;;2.10;0.90;;;;;;;13.57;65.10;99342.63;4953800;28;20043;-64
2021/04/11 01:05:58;;;;;;;2.35;0.70;;;;;;;13.55;65.01;99345.72;4960008;28;20062;-64
2021/04/11 01:08:27;;;;;;;2.17;0.90;;;;;;;13.54;65.04;99344.09;4958374;29;20095;-64
2021/04/11 01:10:59;;;;;;;1.08;0.60;;;;;;;13.51;65.29;99334.56;4953155;28;20058;-64
2021/04/11 01:13:26;;;;;;;5.75;0.93;;;;;;;13.47;65.41;99330.09;4959158;28;20523;-65
2021/04/11 01:15:52;;;;;;;2.35;0.70;;;;;;;13.45;65.41;99332.34;4950439;29;20023;-64
2021/04/11 01:18:18;;;;;;;1.35;0.80;;;;;;;13.42;65.55;99327.50;4965817;28;20074;-66
2021/04/11 01:20:44;;;;;;;3.53;1.30;;;;;;;13.38;65.46;99317.22;4953889;28;20042;-65
2021/04/11 01:23:19;;;;;;;2.00;0.82;;;;;;;13.39;65.58;99320.75;4959479;28;20031;-64
2021/04/11 01:25:48;;;;;;;1.17;0.68;;;;;;;13.22;65.38;99311.38;4958998;28;20027;-64
2021/04/11 01:28:18;;;;;;;1.80;0.70;;;;;;;13.40;65.60;99335.22;4952684;28;20537;-64
2021/04/11 01:30:46;;;;;;;0.88;0.52;;;;;;;13.32;65.57;99325.88;4947527;29;20031;-64
2021/04/11 01:33:16;;;;;;;2.53;0.80;;;;;;;13.39;65.68;99342.66;4949338;29;20020;-64
2021/04/11 01:35:44;;;;;;;2.42;0.77;;;;;;;13.21;65.61;99309.78;4956609;28;20110;-64
2021/04/11 01:38:12;;;;;;;2.05;0.70;;;;;;;13.41;65.64;99353.28;4959594;28;20542;-64
2021/04/11 01:41:05;;;;;;;3.00;0.75;;;;;;;13.41;65.57;99351.34;4956176;28;20035;-64
2021/04/11 01:43:32;;;;;;;2.03;0.77;;;;;;;13.40;65.66;99368.09;4943317;28;20031;-66
2021/04/11 01:45:58;;;;;;;2.28;0.80;;;;;;;13.23;65.57;99350.50;4955851;28;20042;-64
2021/04/11 01:48:24;;;;;;;2.22;0.73;;;;;;;13.40;65.47;99365.34;4953856;28;20039;-64
2021/04/11 01:50:50;;;;;;;1.83;0.70;;;;;;;13.38;65.50;99363.75;4946838;28;20035;-64
2021/04/11 01:53:18;;;;;;;2.38;0.80;;;;;;;13.28;65.47;99353.09;4945041;28;20043;-67
2021/04/11 01:55:44;;;;;;;3.80;0.77;;;;;;;13.37;65.58;99356.66;4947521;28;20089;-64
2021/04/11 01:58:12;;;;;;;1.67;0.73;;;;;;;13.37;65.49;99362.13;4957297;28;20506;-64
2021/04/11 02:00:45;;;;;;;2.60;0.70;;;;;;;13.44;65.51;99358.13;4955731;28;20159;-63
2021/04/11 02:03:15;;;;;;;1.95;0.50;;;;;;;13.45;65.42;99362.47;4956087;28;20054;-65
2021/04/11 02:05:42;;;;;;;2.28;0.85;;;;;;;13.20;65.34;99324.59;4949014;28;20038;-65
2021/04/11 02:08:10;;;;;;;1.58;0.82;;;;;;;13.45;65.21;99363.25;4952203;28;20031;-64
2021/04/11 02:10:39;;;;;;;1.48;0.88;;;;;;;13.46;65.39;99356.66;4958454;28;20031;-64
2021/04/11 02:13:07;;;;;;;2.60;1.02;;;;;;;13.47;65.33;99346.53;4952106;28;20031;-65
2021/04/11 02:15:38;;;;;;;2.25;0.90;;;;;;;13.46;65.32;99348.44;4951489;29;20523;-66
2021/04/11 02:18:04;;;;;;;1.83;0.80;;;;;;;13.45;65.32;99346.81;4964271;28;20027;-64
2021/04/11 02:20:32;;;;;;;2.17;1.15;;;;;;;13.43;65.33;99337.34;4957787;28;20031;-64
2021/04/11 02:22:57;;;;;;;2.58;0.95;;;;;;;13.41;65.38;99328.63;4957340;28;20452;-64
2021/04/11 02:25:28;;;;;;;2.08;0.90;;;;;;;13.36;65.31;99322.19;4957151;28;20031;-64
2021/04/11 02:27:55;;;;;;;3.00;0.98;;;;;;;13.35;65.52;99319.75;4957911;28;20055;-64
2021/04/11 02:30:22;;;;;;;1.10;0.90;;;;;;;13.33;65.61;99317.34;4954574;28;20042;-64
2021/04/11 02:32:49;;;;;;;2.10;1.00;;;;;;;13.30;65.56;99314.44;4954497;28;20110;-64
2021/04/11 02:35:20;;;;;;;1.85;0.70;;;;;;;13.29;65.61;99318.31;4951385;28;20031;-64
2021/04/11 02:37:52;;;;;;;3.63;0.82;;;;;;;13.26;65.71;99317.03;4946547;28;20034;-65
2021/04/11 02:40:23;;;;;;;2.03;0.80;;;;;;;13.25;65.74;99318.16;4957388;28;20037;-65
2021/04/11 02:42:49;;;;;;;1.60;0.80;;;;;;;13.25;65.69;99317.34;4958058;28;20114;-64
2021/04/11 02:45:20;;;;;;;2.95;0.80;;;;;;;13.22;65.93;99311.38;4952227;28;20507;-64
2021/04/11 02:47:45;;;;;;;1.50;0.93;;;;;;;13.25;65.72;99318.16;4962932;28;20062;-66
2021/04/11 02:50:14;;;;;;;3.00;0.80;;;;;;;13.25;65.84;99331.03;4952370;28;20031;-64
2021/04/11 02:52:48;;;;;;;1.30;0.82;;;;;;;13.28;65.72;99324.91;4958020;28;20051;-64
2021/04/11 02:55:17;;;;;;;2.25;0.90;;;;;;;13.28;65.54;99328.47;4952819;28;20449;-64
2021/04/11 02:57:43;;;;;;;1.88;0.70;;;;;;;13.29;65.64;99346.50;4949489;29;20107;-65
2021/04/11 03:00:14;;;;;;;4.30;1.00;;;;;;;13.17;65.85;99336.19;4955071;28;20130;-64
2021/04/11 03:02:39;;;;;;;1.33;0.80;;;;;;;13.29;65.79;99364.84;4953723;28;20036;-64
2021/04/11 03:05:06;;;;;;;1.77;1.00;;;;;;;13.30;65.72;99366.47;4953594;28;20089;-65
2021/04/11 03:07:40;;;;;;;2.80;1.10;;;;;;;13.33;65.86;99363.09;4948650;28;20034;-66
2021/04/11 03:10:10;;;;;;;1.88;1.17;;;;;;;13.32;65.69;99367.75;4946817;28;20042;-64
2021/04/11 03:12:38;;;;;;;1.95;0.90;;;;;;;13.29;65.70;99378.53;4957869;28;20063;-64
2021/04/11 03:15:06;;;;;;;2.25;0.80;;;;;;;13.09;65.73;99338.91;4958287;28;20472;-64
2021/04/11 03:17:32;;;;;;;1.15;0.70;;;;;;;13.27;65.91;99365.16;4960617;28;20023;-67
2021/04/11 03:20:03;;;;;;;2.25;1.00;;;;;;;13.28;65.99;99355.84;4962772;28;20058;-64
2021/04/11 03:22:29;;;;;;;1.10;0.80;;;;;;;13.18;65.92;99335.03;4956423;28;20035;-64
2021/04/11 03:24:55;;;;;;;2.17;0.73;;;;;;;13.28;66.05;99360.50;4959451;28;20097;-64
2021/04/11 03:27:36;;;;;;;2.30;0.95;;;;;;;13.30;65.70;99353.59;4958448;28;20055;-65
2021/04/11 03:30:21;;;;;;;1.98;1.10;;;;;;;13.27;65.92;99350.66;4958314;28;20023;-66
2021/04/11 03:32:50;;;;;;;4.68;1.20;;;;;;;13.23;65.92;99353.25;4956945;28;20065;-66
2021/04/11 03:35:21;;;;;;;2.65;0.90;;;;;;;13.22;65.94;99346.97;4956205;29;20035;-66
2021/04/11 03:37:48;;;;;;;1.77;0.88;;;;;;;13.16;65.86;99340.06;4960261;28;20062;-66
2021/04/11 03:40:16;;;;;;;2.40;1.20;;;;;;;13.21;65.85;99350.03;4950446;28;20031;-64
2021/04/11 03:42:46;;;;;;;1.55;0.85;;;;;;;13.18;65.82;99346.00;4960266;28;20462;-64
2021/04/11 03:45:13;;;;;;;2.78;0.90;;;;;;;13.18;65.96;99345.19;4960676;28;20027;-64
2021/04/11 03:47:47;;;;;;;1.27;0.80;;;;;;;13.19;66.03;99341.34;4973344;28;20053;-64
2021/04/11 03:50:18;;;;;;;2.47;0.90;;;;;;;13.20;66.08;99332.81;4948815;28;20028;-64
2021/04/11 03:52:57;;;;;;;1.65;0.90;;;;;;;13.12;66.07;99335.56;4960532;28;20403;-65
2021/04/11 03:55:26;;;;;;;2.63;0.93;;;;;;;13.16;65.96;99341.97;4954636;28;20027;-65
2021/04/11 03:57:54;;;;;;;2.15;1.20;;;;;;;13.15;66.02;99349.41;4952540;29;20042;-64
2021/04/11 04:00:26;;;;;;;1.77;1.23;;;;;;;13.13;66.07;99343.44;4948315;28;20023;-64
2021/04/11 04:02:54;;;;;;;1.05;0.90;;;;;;;13.11;66.03;99342.16;4954733;28;20102;-64
2021/04/11 04:05:25;;;;;;;3.22;1.23;;;;;;;13.12;66.01;99349.22;4950066;28;20114;-65
2021/04/11 04:07:56;;;;;;;1.05;0.88;;;;;;;13.11;66.00;99351.16;4961175;28;20106;-65
2021/04/11 04:10:26;;;;;;;7.90;1.23;;;;;;;13.09;65.95;99345.22;4957925;28;20022;-64
2021/04/11 04:13:10;;;;;;;3.58;1.10;;;;;;;13.08;65.93;99343.59;4953620;29;20046;-65
2021/04/11 04:16:03;;;;;;;1.13;0.80;;;;;;;13.07;66.19;99348.25;4956054;28;20107;-65
2021/04/11 04:18:50;;;;;;;1.13;0.88;;;;;;;13.06;66.14;99351.31;4961019;28;20031;-64
2021/04/11 04:21:28;;;;;;;1.77;0.90;;;;;;;13.02;66.05;99340.22;4960683;28;20495;-66
2021/04/11 04:23:56;;;;;;;3.03;1.35;;;;;;;13.00;66.38;99339.72;4959067;28;20031;-64
2021/04/11 04:26:52;;;;;;;1.55;1.08;;;;;;;13.00;66.37;99342.44;4960664;28;20027;-64
2021/04/11 04:29:36;;;;;;;1.85;0.82;;;;;;;12.98;65.97;99339.22;4957890;28;20047;-64
2021/04/11 04:32:19;;;;;;;3.13;1.02;;;;;;;12.96;66.25;99336.03;4954682;28;20034;-65
2021/04/11 04:35:11;;;;;;;1.20;0.88;;;;;;;12.98;66.26;99338.44;4947935;29;20039;-64
2021/04/11 04:37:43;;;;;;;1.60;1.00;;;;;;;12.95;66.28;99342.63;4954499;28;20106;-64
2021/04/11 04:40:34;;;;;;;2.90;1.08;;;;;;;12.99;66.40;99346.31;4955711;28;20110;-64
2021/04/11 04:43:15;;;;;;;2.40;1.00;;;;;;;12.99;66.35;99357.25;4952260;28;20474;-64
2021/04/11 04:46:05;;;;;;;3.85;0.90;;;;;;;13.00;66.13;99349.88;4947522;28;20027;-65
2021/04/11 04:48:45;;;;;;;1.55;0.80;;;;;;;13.00;66.16;99356.13;4959943;28;20039;-66
2021/04/11 04:51:40;;;;;;;1.67;0.82;;;;;;;13.00;66.25;99352.59;4954532;28;20435;-65
2021/04/11 04:54:13;;;;;;;3.70;1.08;;;;;;;12.94;66.27;99351.94;4948636;28;20031;-64
2021/04/11 04:56:44;;;;;;;1.75;0.90;;;;;;;12.95;66.35;99350.81;4955063;28;20035;-64
2021/04/11 04:59:21;;;;;;;1.42;0.90;;;;;;;12.94;66.43;99345.66;4958215;28;20412;-64
2021/04/11 05:01:52;;;;;;;2.22;0.88;;;;;;;12.92;66.52;99348.72;4956526;28;20066;-66
2021/04/11 05:04:24;;;;;;;1.42;0.90;;;;;;;12.91;66.60;99344.38;4969566;28;20031;-65
2021/04/11 05:06:56;;;;;;;1.65;1.00;;;;;;;12.89;66.66;99341.16;4960232;28;20455;-64
2021/04/11 05:09:35;;;;;;;1.13;0.80;;;;;;;12.92;66.59;99351.44;4950499;28;20036;-64
2021/04/11 05:12:05;;;;;;;1.00;0.80;;;;;;;12.92;66.50;99348.72;4949192;28;20102;-66
2021/04/11 05:14:48;;;;;;;1.38;0.90;;;;;;;12.93;66.71;99350.34;4950986;28;20027;-65
2021/04/11 05:17:20;;;;;;;0.90;0.73;;;;;;;12.93;66.65;99346.81;4956232;28;20360;-64
2021/04/11 05:19:51;;;;;;;1.27;0.88;;;;;;;12.90;66.60;99338.09;4957555;28;20027;-66
2021/04/11 05:22:26;;;;;;;1.63;1.00;;;;;;;12.89;66.72;99341.97;4953751;28;20040;-66
2021/04/11 05:24:59;;;;;;;0.90;0.80;;;;;;;12.44;66.74;99266.44;4946564;28;20403;-64
2021/04/11 05:27:34;;;;;;;1.40;0.90;;;;;;;12.83;66.88;99329.56;4951016;28;20047;-64
2021/04/11 05:30:21;;;;;;;0.82;0.70;;;;;;;12.81;66.93;99322.81;4957853;28;20035;-64
2021/04/11 05:32:48;;;;;;;1.85;0.90;;;;;;;12.79;67.11;99325.06;4958074;28;20400;-67
2021/04/11 05:35:14;;;;;;;1.05;0.80;;;;;;;12.81;67.10;99328.28;4954020;28;20114;-64
2021/04/11 05:37:43;;;;;;;1.17;0.90;;;;;;;12.79;67.17;99338.72;4950269;28;20494;-64
2021/04/11 05:40:47;;;;;;;1.30;0.90;;;;;;;12.74;67.12;99345.94;4959375;28;20027;-64
2021/04/11 05:43:22;;;;;;;1.17;1.00;;;;;;;12.75;67.35;99369.44;4948475;28;20039;-64
2021/04/11 05:46:00;;;;;;;1.23;0.98;;;;;;;12.59;67.19;99346.41;4956173;28;20033;-65
2021/04/11 05:48:54;;;;;;;1.67;1.05;;;;;;;12.79;67.39;99377.03;4957020;28;20031;-65
2021/04/11 05:51:28;;;;;;;1.55;1.13;;;;;;;12.79;67.39;99363.34;4956233;28;20095;-64
2021/04/11 05:54:14;;;;;;;1.33;1.00;;;;;;;12.80;67.30;99360.28;4959226;28;20042;-65
2021/04/11 05:56:50;;;;;;;2.58;1.30;;;;;;;12.82;67.27;99373.63;4955034;28;20054;-64
2021/04/11 05:59:23;;;;;;;2.08;1.30;;;;;;;12.83;67.46;99369.78;4950652;28;20031;-66
2021/04/11 06:01:56;;;;;;;1.85;1.30;;;;;;;12.70;67.15;99338.69;4953392;28;20103;-64
2021/04/11 06:04:34;;;;;;;2.28;1.52;;;;;;;12.90;67.34;99375.59;4952137;29;20098;-64
2021/04/11 06:07:06;;;;;;;2.20;1.20;;;;;;;12.93;67.32;99396.84;4947486;28;20019;-64
2021/04/11 06:09:44;;;;;;;2.80;1.40;;;;;;;12.97;67.22;99414.25;4958491;28;20074;-66
2021/04/11 06:12:29;;;;;;;4.30;1.30;;;;;;;12.98;67.17;99417.78;4954250;28;20051;-64
2021/04/11 06:15:06;;;;;;;3.35;1.40;;;;;;;13.01;67.19;99428.09;4956945;28;20024;-65
2021/04/11 06:17:31;;;;;;;2.08;1.40;;;;;;;12.94;67.15;99414.88;4963044;28;20018;-67
2021/04/11 06:19:57;;;;;;;2.10;1.63;;;;;;;13.09;67.19;99429.22;4955082;28;20058;-64
2021/04/11 06:22:34;;;;;;;2.13;1.17;;;;;;;13.14;66.99;99440.03;4946420;28;20035;-65
2021/04/11 06:25:13;;;;;;;1.88;1.38;;;;;;;13.18;66.72;99436.31;4953394;28;20067;-65
2021/04/11 06:27:39;;;;;;;2.25;1.30;;;;;;;13.16;66.79;99433.13;4946037;28;20047;-64
2021/04/11 06:30:26;;;;;;;1.85;1.40;;;;;;;13.19;66.75;99437.16;4954542;28;20049;-65
2021/04/11 06:33:02;;;;;;;2.53;1.60;;;;;;;13.19;66.65;99440.66;4953031;28;20027;-65
2021/04/11 06:35:35;;;;;;;3.40;1.77;;;;;;;13.20;66.62;99442.28;4955881;29;20569;-64
2021/04/11 06:38:02;;;;;;;1.98;1.45;;;;;;;13.05;66.41;99418.13;4958313;28;20078;-67
2021/04/11 06:41:03;;;;;;;3.17;1.70;;;;;;;13.28;66.25;99435.22;4954230;28;20022;-64
2021/04/11 06:43:43;;;;;;;1.75;1.40;;;;;;;13.27;66.47;99435.53;4957737;28;20066;-64
2021/04/11 06:46:21;;;;;;;2.28;1.60;;;;;;;13.27;66.36;99441.81;4951408;28;20065;-64
2021/04/11 06:49:01;;;;;;;2.58;1.65;;;;;;;13.28;66.34;99429.75;4957081;28;20031;-67
2021/04/11 06:52:00;;;;;;;4.10;1.67;;;;;;;13.35;66.23;99435.56;4945083;29;20526;-65
2021/04/11 06:54:28;;;;;;;1.98;1.48;;;;;;;13.37;66.25;99440.69;4956450;28;20024;-65
2021/04/11 06:57:04;;;;;;;2.92;1.63;;;;;;;13.17;65.98;99410.09;4955237;28;20507;-65
2021/04/11 06:59:55;;;;;;;2.45;1.70;;;;;;;13.34;66.07;99442.16;4953497;28;20496;-65
2021/04/11 07:02:39;;;;;;;1.98;1.50;;;;;;;13.34;65.96;99457.78;4948083;28;20027;-66
2021/04/11 07:05:48;;;;;;;2.40;1.67;;;;;;;13.29;66.06;99464.22;4954408;28;20071;-65
2021/04/11 07:08:51;;;;;;;3.58;1.80;;;;;;;13.30;66.29;99452.16;4953366;28;20047;-65
2021/04/11 07:11:27;;;;;;;2.65;1.88;;;;;;;13.36;66.21;99450.84;4949133;28;20099;-66
2021/04/11 07:14:25;;;;;;;2.20;1.98;;;;;;;13.45;66.26;99461.03;4946396;28;20065;-65
2021/04/11 07:17:12;;;;;;;3.55;2.00;;;;;;;13.50;66.04;99461.69;4931587;28;20138;-65
2021/04/11 07:20:04;;;;;;;3.00;1.90;;;;;;;13.56;65.94;99464.28;4959814;28;20038;-65
2021/04/11 07:22:48;;;;;;;2.58;1.90;;;;;;;13.58;65.80;99465.56;4957914;28;20089;-65
2021/04/11 07:25:22;;;;;;;2.50;2.13;;;;;;;13.62;65.92;99462.97;4943935;29;20067;-65
2021/04/11 07:28:33;;;;;;;3.67;2.13;;;;;;;13.71;65.56;99466.53;4944662;28;20151;-66
2021/04/11 07:31:06;;;;;;;2.47;1.80;;;;;;;13.75;65.41;99477.66;4934671;28;20115;-65
2021/04/11 07:34:04;;;;;;;2.72;1.92;;;;;;;13.80;65.17;99481.03;4958004;28;20020;-66
2021/04/11 07:36:50;;;;;;;2.95;1.85;;;;;;;13.79;65.42;99479.41;4954296;28;20047;-65
2021/04/11 07:39:45;;;;;;;3.67;1.70;;;;;;;13.80;65.21;99478.28;4951065;28;20037;-66
2021/04/11 07:42:13;;;;;;;2.85;2.13;;;;;;;13.77;65.21;99478.94;4952062;28;20035;-65
2021/04/11 07:45:31;;;;;;;2.80;2.10;;;;;;;13.82;65.26;99475.22;4952618;28;20032;-65
2021/04/11 07:48:25;;;;;;;2.55;2.10;;;;;;;13.84;65.31;99487.47;4936191;28;20040;-65
2021/04/11 07:51:02;;;;;;;3.03;1.98;;;;;;;13.82;65.34;99481.53;4948879;28;20062;-65
2021/04/11 07:53:36;;;;;;;2.80;1.80;;;;;;;13.81;65.22;99482.66;4957655;28;20016;-64
2021/04/11 07:56:47;;;;;;;3.15;2.10;;;;;;;13.87;65.09;99487.94;4956814;28;20058;-67
2021/04/11 07:59:12;;;;;;;2.65;1.90;;;;;;;13.85;65.15;99497.31;4957144;28;20519;-65
2021/04/11 08:02:00;;;;;;;3.30;1.60;;;;;;;13.90;65.12;99504.56;4949564;28;20032;-65
2021/04/11 08:04:46;;;;;;;3.88;2.13;;;;;;;13.88;65.14;99504.09;4958957;28;20038;-64
2021/04/11 08:07:45;;;;;;;2.63;2.00;;;;;;;13.84;64.78;99508.59;4955034;28;20055;-65
2021/04/11 08:10:30;;;;;;;2.60;2.05;;;;;;;13.81;64.98;99504.56;4952202;28;20127;-65
2021/04/11 08:13:29;;;;;;;3.27;1.90;;;;;;;13.85;65.17;99502.00;4955287;28;20046;-65
2021/04/11 08:16:00;;;;;;;2.78;2.08;;;;;;;13.90;65.13;99511.97;4958493;28;20031;-64
2021/04/11 08:19:00;;;;;;;4.45;3.00;;;;;;;14.01;64.99;99522.28;4964617;28;20439;-65
2021/04/11 08:21:44;;;;;;;4.18;2.70;;;;;;;14.09;64.90;99512.44;4948958;28;20035;-65
2021/04/11 08:24:24;;;;;;;4.03;2.47;;;;;;;14.17;64.81;99524.53;4964978;28;20555;-64
2021/04/11 08:27:11;;;;;;;3.38;2.38;;;;;;;14.23;64.47;99523.25;4964201;28;20038;-64
2021/04/11 08:30:13;;;;;;;4.47;2.75;;;;;;;14.27;64.38;99526.97;4960749;28;20515;-66
2021/04/11 08:33:06;;;;;;;4.75;2.60;;;;;;;14.24;64.48;99524.84;4956414;28;20047;-64
2021/04/11 08:36:07;;;;;;;5.28;2.67;;;;;;;14.25;64.20;99531.94;4960555;28;20031;-66
2021/04/11 08:39:20;;;;;;;4.47;3.00;;;;;;;14.14;64.29;99517.78;4957645;28;20019;-67
2021/04/11 08:41:51;;;;;;;4.63;2.88;;;;;;;14.22;64.44;99549.03;4943303;28;20131;-65
2021/04/11 08:44:25;;;;;;;5.75;2.60;;;;;;;14.21;64.32;99555.69;4960543;28;20078;-66
2021/04/11 08:46:56;;;;;;;3.42;2.30;;;;;;;14.20;64.44;99565.03;4968686;28;20031;-64
2021/04/11 08:50:00;;;;;;;3.47;2.47;;;;;;;14.12;64.35;99560.34;4960412;28;20058;-65
2021/04/11 08:52:41;;;;;;;2.75;2.40;;;;;;;14.03;64.63;99565.03;4941781;28;20046;-66
2021/04/11 08:55:13;;;;;;;3.00;2.42;;;;;;;14.00;64.55;99570.00;4960335;28;20579;-66
2021/04/11 08:57:59;;;;;;;3.55;2.40;;;;;;;13.99;64.65;99571.13;4959612;28;20070;-66
2021/04/11 09:00:34;;;;;;;4.22;2.40;;;;;;;13.89;64.57;99562.44;4950880;28;20066;-65
2021/04/11 09:03:36;;;;;;;3.90;2.60;;;;;;;13.94;64.60;99579.53;4958880;28;20481;-65
2021/04/11 09:06:16;;;;;;;2.67;2.10;;;;;;;13.91;64.90;99590.34;4955808;28;20034;-67
2021/04/11 09:08:48;;;;;;;5.60;2.70;;;;;;;13.87;65.03;99598.38;4968151;28;20390;-67
2021/04/11 09:11:30;;;;;;;3.85;2.30;;;;;;;13.84;65.23;99601.75;4963439;28;20078;-65
2021/04/11 09:14:29;;;;;;;3.72;2.25;;;;;;;13.84;65.28;99607.25;4959480;28;20373;-67
2021/04/11 09:17:32;;;;;;;5.38;2.83;;;;;;;13.77;65.24;99604.16;4961120;28;20086;-65
2021/04/11 09:20:14;;;;;;;3.60;2.53;;;;;;;13.82;65.35;99615.78;4950871;28;20031;-65
2021/04/11 09:22:46;;;;;;;4.93;2.80;;;;;;;13.78;65.42;99620.28;4963572;28;20050;-66
2021/04/11 09:25:16;;;;;;;3.72;2.53;;;;;;;13.74;65.67;99622.06;4965208;28;20085;-67
2021/04/11 09:28:00;;;;;;;4.22;3.00;;;;;;;13.76;65.78;99635.44;4958957;28;20059;-66
2021/04/11 09:30:43;;;;;;;4.85;2.97;;;;;;;13.62;65.95;99630.06;4956671;28;20427;-65
2021/04/11 09:33:36;;;;;;;4.30;3.38;;;;;;;13.57;66.54;99636.50;4959659;28;20050;-67
2021/04/11 09:36:49;;;;;;;4.72;3.13;;;;;;;13.48;66.93;99650.16;4949916;28;20039;-67
2021/04/11 09:39:33;;;;;;;7.22;4.45;;;;;;;13.39;67.72;99646.59;4928862;28;20039;-66
2021/04/11 09:42:31;;;;;;;8.07;6.65;;;;;;;13.37;68.13;99655.09;4958579;28;20027;-66
2021/04/11 09:44:59;;;;;;;7.13;5.70;;;;;;;13.32;68.63;99660.69;4959279;28;20042;-66
2021/04/11 09:47:50;;;;;;;4.70;4.00;;;;;;;13.27;69.78;99660.00;4971945;28;20038;-68
2021/04/11 09:50:32;;;;;;;5.60;3.22;;;;;;;13.09;70.74;99657.22;4958596;28;20118;-67
2021/04/11 09:53:35;;;;;;;5.15;3.45;;;;;;;12.76;73.23;99684.84;4959216;28;20031;-65
2021/04/11 09:56:22;;;;;;;3.65;1.90;;;;;;;12.37;74.66;99680.81;4953300;28;20039;-67
2021/04/11 09:59:01;;;;;;;2.75;1.88;;;;;;;12.09;75.50;99673.47;4959788;28;20091;-68
2021/04/11 10:01:42;;;;;;;3.95;2.38;;;;;;;11.92;77.03;99689.66;4963269;28;20038;-67
2021/04/11 10:04:26;;;;;;;2.85;1.90;;;;;;;11.76;78.18;99695.44;4959039;28;20551;-68
2021/04/11 10:07:14;;;;;;;5.07;2.53;;;;;;;11.71;78.00;99708.38;4946251;28;20491;-65
2021/04/11 10:10:11;;;;;;;4.47;2.47;;;;;;;11.44;80.51;99701.81;4958977;28;20058;-65
2021/04/11 10:13:05;;;;;;;3.45;1.92;;;;;;;11.43;80.15;99717.34;4948276;28;20035;-65
2021/04/11 10:15:46;;;;;;;2.80;1.92;;;;;;;11.38;81.10;99716.63;4958706;28;20038;-66
2021/04/11 10:18:20;;;;;;;3.45;2.03;;;;;;;11.32;81.50;99710.47;4959870;28;20090;-64
2021/04/11 10:20:51;;;;;;;3.50;1.90;;;;;;;11.32;81.20;99719.47;4957955;28;20094;-65
2021/04/11 10:23:26;;;;;;;2.72;1.90;;;;;;;11.36;81.72;99722.41;4958635;28;20110;-66
2021/04/11 10:26:01;;;;;;;5.60;2.20;;;;;;;11.38;81.04;99733.00;4958206;28;20050;-66
2021/04/11 10:28:46;;;;;;;3.17;2.00;;;;;;;11.44;80.93;99732.63;4958046;28;20090;-65
2021/04/11 10:31:14;;;;;;;4.68;2.42;;;;;;;11.54;80.58;99733.56;4946540;28;20035;-64
2021/04/11 10:33:52;;;;;;;6.20;2.78;;;;;;;11.47;80.45;99729.31;4958440;28;20023;-65
2021/04/11 10:36:29;;;;;;;5.03;3.13;;;;;;;11.60;79.95;99737.81;4958219;28;20025;-66
2021/04/11 10:39:34;;;;;;;5.88;3.20;;;;;;;11.64;79.72;99747.81;4958403;28;20071;-65
2021/04/11 10:42:30;;;;;;;8.05;4.82;;;;;;;11.64;79.45;99756.03;4956937;28;20027;-64
2021/04/11 10:45:08;;;;;;;7.00;3.97;;;;;;;11.67;79.40;99751.06;4957914;28;20031;-65
2021/04/11 10:47:55;;;;;;;4.03;2.88;;;;;;;11.68;79.54;99758.97;4950323;28;20118;-65
2021/04/11 10:50:33;;;;;;;6.80;3.28;;;;;;;11.71;79.29;99750.16;4957987;28;20038;-65
2021/04/11 10:53:05;;;;;;;8.10;4.65;;;;;;;11.78;79.02;99760.69;4957754;28;20030;-65
2021/04/11 10:55:55;;;;;;;5.40;2.80;;;;;;;11.86;79.15;99754.50;4957956;28;20112;-66
2021/04/11 10:58:58;;;;;;;7.85;4.68;;;;;;;11.93;79.19;99751.38;4957428;28;20027;-65
2021/04/11 11:01:29;;;;;;;9.52;5.63;;;;;;;12.01;79.70;99758.09;4956981;28;20059;-65
2021/04/11 11:04:10;;;;;;;8.10;3.45;;;;;;;12.12;80.01;99759.50;4956615;28;20126;-63
2021/04/11 11:07:07;;;;;;;5.78;3.20;;;;;;;12.25;81.26;99758.69;4957746;28;20140;-63
2021/04/11 11:09:43;;;;;;;5.03;2.85;;;;;;;12.26;81.57;99763.06;4958165;28;20485;-66
2021/04/11 11:12:43;;;;;;;8.13;2.83;;;;;;;12.30;82.20;99760.53;4956411;28;20058;-66
2021/04/11 11:15:14;;;;;;;7.63;3.00;;;;;;;12.29;82.16;99764.38;4921610;28;20476;-64
2021/04/11 11:18:01;;;;;;;7.28;3.05;;;;;;;12.30;82.11;99754.22;4966332;28;20078;-63
2021/04/11 11:21:13;;;;;;;8.88;4.30;;;;;;;12.28;82.85;99754.53;4958735;28;20050;-63
2021/04/11 11:23:45;;;;;;;4.40;2.97;;;;;;;12.22;82.63;99761.25;4934510;29;20086;-64
2021/04/11 11:26:15;;;;;;;7.63;4.68;;;;;;;12.22;82.60;99766.72;4936166;29;20106;-64
2021/04/11 11:29:14;;;;;;;4.80;3.15;;;;;;;12.19;83.17;99767.31;4937077;28;20419;-64
2021/04/11 11:32:18;;;;;;;4.60;2.55;;;;;;;12.19;83.60;99770.03;4961510;28;20510;-62
2021/04/11 11:35:00;;;;;;;4.43;2.28;;;;;;;11.92;83.31;99747.03;4964926;28;20038;-62
2021/04/11 11:37:34;;;;;;;4.97;3.13;;;;;;;12.10;83.39;99776.22;4960382;28;20507;-62
2021/04/11 11:40:02;;;;;;;6.18;2.90;;;;;;;12.16;83.16;99773.38;4961222;29;20522;-61
2021/04/11 11:42:34;;;;;;;5.30;2.85;;;;;;;12.07;83.41;99754.16;4955484;28;20091;-61
2021/04/11 11:44:59;;;;;;;7.13;2.83;;;;;;;12.25;83.26;99771.53;4966575;28;20055;-65
2021/04/11 11:47:38;;;;;;;7.00;3.00;;;;;;;12.32;83.20;99774.66;4965183;28;20034;-65
2021/04/11 11:50:21;;;;;;;4.07;3.08;;;;;;;12.39;83.25;99772.38;4958534;29;20503;-65
2021/04/11 11:53:02;;;;;;;4.55;3.17;;;;;;;12.46;83.15;99768.41;4953336;29;20516;-65
2021/04/11 11:55:34;;;;;;;6.82;2.60;;;;;;;12.50;82.69;99772.13;4953527;29;20059;-62
2021/04/11 11:58:36;;;;;;;4.88;2.88;;;;;;;12.54;82.92;99768.47;4960912;28;20058;-61
2021/04/11 12:01:06;;;;;;;3.83;2.60;;;;;;;12.57;82.79;99773.34;4951693;28;20074;-65
2021/04/11 12:03:36;;;;;;;8.48;4.25;;;;;;;12.61;82.17;99779.00;4961190;28;20027;-65
2021/04/11 12:06:22;;;;;;;4.32;2.58;;;;;;;12.63;81.92;99774.03;4961128;28;20034;-66
2021/04/11 12:08:51;;;;;;;;;;;;;;;12.66;82.21;99780.81;4954713;29;20031;-66
2021/04/11 12:11:24;;;;;;;6.88;3.60;;;;;;;12.68;81.74;99787.59;4960141;29;19926;-65
2021/04/11 12:14:33;;;;;;;6.47;2.20;;;;;;;12.44;80.91;99805.06;4960127;28;20025;-63
2021/04/11 12:17:23;;;;;;;5.32;1.10;;;;;;;12.01;80.97;99813.56;4950273;28;20047;-63
2021/04/11 12:19:59;;;;;;;2.92;1.48;;;;;;;11.46;83.22;99834.16;4959509;28;20026;-63
2021/04/11 12:22:30;;;;;;;;;;;;;;;11.22;83.84;99830.72;4961492;28;20030;-62
2021/04/11 12:25:01;;;;;;;2.75;1.40;;;;;;;11.12;84.72;99837.97;4960869;28;20023;-64